logo
Search for airport 
image banner adimage banner adimage banner ad
image banner ad

LOBM - Mistelbach Kh

Located in District Mistelbach, Austria

ICAO - , IATA -

Data provided by Airmate  

General information

Coordinates: N48°34'2" E16°34'52"
Elevation is 777 feet MSL.
 
View others Airports in Lower Austria

Operational data

Special qualification required
Current time UTC:
Current local time:
Weather at : LZMC - Malacky ( 44 km )
TAF: TAF LZMC 290730Z 2909/2918 33006KT 9999 BKN040 TEMPO 2909/2912 9999 FEW015 SCT035 BKN200 PROB30 TEMPO 2912/2916 32012KT 9999 SCT025TCU BKN045 BECMG 2916/2918 CAVOK
View NOTAMs / SUP AIP / TFR affecting this airport [VIEW]
Communications frequencies: [VIEW]

Runways:

Airport contact information

Address: District Mistelbach Austria

Satellite view of LOBM